createdAt,value
2022-10-06T00:00:53.780Z,85.51
2022-10-06T00:01:55.550Z,84.84
2022-10-06T00:02:57.399Z,84.87
2022-10-06T00:04:02.495Z,84.81
2022-10-06T00:05:04.663Z,84.88
2022-10-06T00:06:07.173Z,85.16
2022-10-06T00:07:09.059Z,84.90
2022-10-06T00:08:11.994Z,85.53
2022-10-06T00:09:13.793Z,85.64
2022-10-06T00:10:15.821Z,85.33
2022-10-06T00:11:17.733Z,85.07
2022-10-06T00:12:19.475Z,85.25
2022-10-06T00:13:21.331Z,84.83
2022-10-06T00:14:23.054Z,85.29
2022-10-06T00:15:26.725Z,85.10
2022-10-06T00:16:28.551Z,84.77
2022-10-06T00:17:30.316Z,85.11
2022-10-06T00:18:32.309Z,85.05
2022-10-06T00:19:34.592Z,84.47
2022-10-06T00:20:36.352Z,84.96
2022-10-06T00:21:38.148Z,84.69
2022-10-06T00:22:41.481Z,84.40
2022-10-06T00:23:43.444Z,84.73
2022-10-06T00:24:45.474Z,84.21
2022-10-06T00:25:47.803Z,84.82
2022-10-06T00:26:49.535Z,84.35
2022-10-06T00:27:52.022Z,85.13
2022-10-06T00:28:53.824Z,84.87
2022-10-06T00:29:55.631Z,85.18
2022-10-06T00:30:57.475Z,84.69
2022-10-06T00:31:59.229Z,85.04
2022-10-06T00:33:02.221Z,85.09
2022-10-06T00:34:04.039Z,85.13
2022-10-06T00:35:06.529Z,84.93
2022-10-06T00:36:08.772Z,85.01
2022-10-06T00:37:10.499Z,84.46
2022-10-06T00:38:13.429Z,84.79
2022-10-06T00:39:15.152Z,85.09
2022-10-06T00:40:17.023Z,84.59
2022-10-06T00:41:18.800Z,84.82
2022-10-06T00:42:22.225Z,84.39
2022-10-06T00:43:36.323Z,84.34
2022-10-06T00:44:38.132Z,84.29
2022-10-06T00:45:46.595Z,84.94
2022-10-06T00:46:50.454Z,84.92
2022-10-06T00:47:53.462Z,84.59
2022-10-06T00:49:06.812Z,84.61
2022-10-06T00:50:10.186Z,84.90
2022-10-06T00:51:12.658Z,84.28
2022-10-06T00:52:19.326Z,84.38
2022-10-06T00:53:21.888Z,85.09
2022-10-06T00:54:24.163Z,84.57
2022-10-06T00:55:26.379Z,85.00
2022-10-06T00:56:28.181Z,84.95
2022-10-06T00:57:30.380Z,85.09
2022-10-06T00:58:33.005Z,85.33
2022-10-06T00:59:35.709Z,84.58
2022-10-06T01:00:37.508Z,84.96
2022-10-06T01:01:41.997Z,85.00
2022-10-06T01:02:52.985Z,85.31
2022-10-06T01:03:57.913Z,84.93
2022-10-06T01:05:01.310Z,85.38
2022-10-06T01:06:04.028Z,85.19
2022-10-06T01:07:07.315Z,85.00
2022-10-06T01:08:09.476Z,84.92
2022-10-06T01:09:11.813Z,84.93
2022-10-06T01:10:13.546Z,84.82
2022-10-06T01:11:15.410Z,84.79
2022-10-06T01:12:17.191Z,85.17
2022-10-06T01:13:19.567Z,84.99
2022-10-06T01:14:22.802Z,84.73
2022-10-06T01:15:25.723Z,85.09
2022-10-06T01:16:27.519Z,85.25
2022-10-06T01:17:52.600Z,85.47
2022-10-06T01:18:56.068Z,85.13
2022-10-06T01:20:03.392Z,85.08
2022-10-06T01:21:09.646Z,85.07
2022-10-06T01:22:13.376Z,84.82
2022-10-06T01:23:15.511Z,84.73
2022-10-06T01:24:18.548Z,85.14
2022-10-06T01:25:20.992Z,84.54
2022-10-06T01:26:24.022Z,84.62
2022-10-06T01:27:27.832Z,84.57
2022-10-06T01:28:30.049Z,84.64
2022-10-06T01:29:32.973Z,85.11
2022-10-06T01:30:46.519Z,85.17
2022-10-06T01:31:48.379Z,84.75
2022-10-06T01:32:50.176Z,84.95
2022-10-06T01:33:56.116Z,84.69
2022-10-06T01:34:58.054Z,84.67
2022-10-06T01:36:00.006Z,84.74
2022-10-06T01:37:01.753Z,84.69
2022-10-06T01:38:03.671Z,85.05
2022-10-06T01:39:05.401Z,84.91
2022-10-06T01:40:07.523Z,84.86
2022-10-06T01:41:09.334Z,84.46
2022-10-06T01:42:11.659Z,84.88
2022-10-06T01:43:13.466Z,85.37
2022-10-06T01:44:15.291Z,85.39
2022-10-06T01:45:17.074Z,85.49
2022-10-06T01:46:19.133Z,85.83
2022-10-06T01:47:20.939Z,85.19
2022-10-06T01:48:23.544Z,85.26
2022-10-06T01:49:25.308Z,85.21
2022-10-06T01:50:27.059Z,85.59
2022-10-06T01:51:28.873Z,85.72
2022-10-06T01:52:30.620Z,85.30
2022-10-06T01:53:32.460Z,85.61
2022-10-06T01:54:34.276Z,85.46
2022-10-06T01:55:36.625Z,85.04
2022-10-06T01:56:38.444Z,85.08
2022-10-06T01:57:41.100Z,85.49
2022-10-06T01:58:43.280Z,85.58
2022-10-06T01:59:45.064Z,85.15
2022-10-06T02:00:46.799Z,85.57
2022-10-06T02:01:48.733Z,85.14
2022-10-06T02:02:51.212Z,85.56
2022-10-06T02:03:52.982Z,85.13
2022-10-06T02:04:54.700Z,85.76
2022-10-06T02:05:57.296Z,85.52
2022-10-06T02:06:59.315Z,85.68
2022-10-06T02:08:02.188Z,85.74
2022-10-06T02:09:04.081Z,85.75
2022-10-06T02:10:06.903Z,85.89
2022-10-06T02:11:10.190Z,85.97
2022-10-06T02:12:11.990Z,86.30
2022-10-06T02:13:13.656Z,86.04
2022-10-06T02:14:16.216Z,86.02
2022-10-06T02:15:18.000Z,86.10
2022-10-06T02:16:21.483Z,85.57
2022-10-06T02:17:23.311Z,85.45
2022-10-06T02:18:25.595Z,85.92
2022-10-06T02:19:27.615Z,85.88
2022-10-06T02:20:29.381Z,86.42
2022-10-06T02:21:31.149Z,86.09
2022-10-06T02:22:32.948Z,86.24
2022-10-06T02:23:34.801Z,85.87
2022-10-06T02:24:36.518Z,86.24
2022-10-06T02:25:38.386Z,86.12
2022-10-06T02:26:40.300Z,86.13
2022-10-06T02:27:42.098Z,86.01
2022-10-06T02:28:47.409Z,85.55
2022-10-06T02:29:50.284Z,85.55
2022-10-06T02:30:52.505Z,85.82
2022-10-06T02:31:55.195Z,85.56
2022-10-06T02:32:56.997Z,85.93
2022-10-06T02:33:59.179Z,85.88
2022-10-06T02:35:01.146Z,85.54
2022-10-06T02:36:03.432Z,85.74
2022-10-06T02:37:05.616Z,86.30
2022-10-06T02:38:07.424Z,85.88
2022-10-06T02:39:09.106Z,86.74
2022-10-06T02:40:10.973Z,86.85
2022-10-06T02:41:13.035Z,86.80
2022-10-06T02:42:14.769Z,86.61
2022-10-06T02:43:16.670Z,86.84
2022-10-06T02:44:18.538Z,86.76
2022-10-06T02:45:20.375Z,86.60
2022-10-06T02:46:22.584Z,86.44
2022-10-06T02:47:24.351Z,86.03
2022-10-06T02:48:27.064Z,86.50
2022-10-06T02:49:29.309Z,85.88
2022-10-06T02:50:31.079Z,86.09
2022-10-06T02:51:33.066Z,86.39
2022-10-06T02:52:35.855Z,85.86
2022-10-06T02:53:37.924Z,86.21
2022-10-06T02:54:39.695Z,86.67
2022-10-06T02:55:41.443Z,86.30
2022-10-06T02:56:43.238Z,85.99
2022-10-06T02:57:46.034Z,86.46
2022-10-06T02:58:50.918Z,85.95
2022-10-06T02:59:52.702Z,86.68
2022-10-06T03:00:54.495Z,86.45
2022-10-06T03:01:56.465Z,86.61
2022-10-06T03:02:59.905Z,86.83
2022-10-06T03:04:01.712Z,86.76
2022-10-06T03:05:03.661Z,86.57
2022-10-06T03:06:23.614Z,86.16
2022-10-06T03:07:25.366Z,86.11
2022-10-06T03:08:27.592Z,86.31
2022-10-06T03:09:29.678Z,86.67
2022-10-06T03:10:31.597Z,86.61
2022-10-06T03:11:34.740Z,86.83
2022-10-06T03:12:37.030Z,86.29
2022-10-06T03:13:38.789Z,86.17
2022-10-06T03:14:40.651Z,86.80
2022-10-06T03:15:42.406Z,86.46
2022-10-06T03:16:44.208Z,86.59
2022-10-06T03:17:48.683Z,86.74
2022-10-06T03:18:51.571Z,86.39
2022-10-06T03:19:54.449Z,86.72
2022-10-06T03:20:59.789Z,87.07
2022-10-06T03:22:01.550Z,87.12
2022-10-06T03:23:03.310Z,86.68
2022-10-06T03:24:05.303Z,87.18
2022-10-06T03:25:08.017Z,87.54
2022-10-06T03:26:10.966Z,87.66
2022-10-06T03:27:12.753Z,87.37
2022-10-06T03:28:16.124Z,87.24
2022-10-06T03:29:18.045Z,87.18
2022-10-06T03:30:19.934Z,87.20
2022-10-06T03:31:22.439Z,86.78
2022-10-06T03:32:24.318Z,87.22
2022-10-06T03:33:26.088Z,87.05
2022-10-06T03:34:27.854Z,87.48
2022-10-06T03:35:29.783Z,87.24
2022-10-06T03:36:35.272Z,87.08
2022-10-06T03:37:37.064Z,87.10
2022-10-06T03:38:38.877Z,87.41
2022-10-06T03:39:40.649Z,87.03
2022-10-06T03:40:42.423Z,86.93
2022-10-06T03:41:44.231Z,87.37
2022-10-06T03:42:45.938Z,86.85
2022-10-06T03:43:50.113Z,87.29
2022-10-06T03:44:51.873Z,87.53
2022-10-06T03:45:58.007Z,87.12
2022-10-06T03:46:59.711Z,87.53
2022-10-06T03:48:01.486Z,87.13
2022-10-06T03:49:03.955Z,87.44
2022-10-06T03:50:05.903Z,87.07
2022-10-06T03:51:10.760Z,87.15
2022-10-06T03:52:12.498Z,87.55
2022-10-06T03:53:16.620Z,87.24
2022-10-06T03:54:18.394Z,87.13
2022-10-06T03:55:20.234Z,87.00
2022-10-06T03:56:32.573Z,87.42
2022-10-06T03:57:34.255Z,86.98
2022-10-06T03:58:37.183Z,86.84
2022-10-06T03:59:39.011Z,87.09
2022-10-06T04:00:40.833Z,87.13
2022-10-06T04:01:44.109Z,87.13
2022-10-06T04:02:45.910Z,86.99
2022-10-06T04:03:47.820Z,86.81
2022-10-06T04:04:49.567Z,86.91
2022-10-06T04:05:55.179Z,87.15
2022-10-06T04:06:57.151Z,87.06
2022-10-06T04:07:58.903Z,87.21
2022-10-06T04:09:01.260Z,87.34
2022-10-06T04:10:03.259Z,87.21
2022-10-06T04:11:06.075Z,87.28
2022-10-06T04:12:07.819Z,87.02
2022-10-06T04:13:09.573Z,86.76
2022-10-06T04:14:13.340Z,87.19
2022-10-06T04:15:15.039Z,86.77
2022-10-06T04:16:16.954Z,86.67
2022-10-06T04:17:18.822Z,86.76
2022-10-06T04:18:20.600Z,86.68
2022-10-06T04:19:23.277Z,87.01
2022-10-06T04:20:25.004Z,87.03
2022-10-06T04:21:27.716Z,86.70
2022-10-06T04:22:29.482Z,87.13
2022-10-06T04:23:31.633Z,86.98
2022-10-06T04:24:34.122Z,86.85
2022-10-06T04:25:35.910Z,87.07
2022-10-06T04:26:38.811Z,86.85
2022-10-06T04:27:40.617Z,86.75
2022-10-06T04:28:44.555Z,87.41
2022-10-06T04:29:46.424Z,87.50
2022-10-06T04:30:55.399Z,87.67
2022-10-06T04:31:57.274Z,87.68
2022-10-06T04:33:00.139Z,87.58
2022-10-06T04:34:02.328Z,87.38
2022-10-06T04:35:05.160Z,87.82
2022-10-06T04:36:08.359Z,87.57
2022-10-06T04:37:10.995Z,87.94
2022-10-06T04:38:15.200Z,87.69
2022-10-06T04:39:17.016Z,87.68
2022-10-06T04:40:18.864Z,88.04
2022-10-06T04:41:20.830Z,87.80
2022-10-06T04:42:23.060Z,87.68
2022-10-06T04:43:26.171Z,87.28
2022-10-06T04:44:28.803Z,87.95
2022-10-06T04:45:30.573Z,88.12
2022-10-06T04:46:49.206Z,88.29
2022-10-06T04:47:51.040Z,88.26
2022-10-06T04:48:53.741Z,88.90
2022-10-06T04:49:55.491Z,89.28
2022-10-06T04:50:58.375Z,89.12
2022-10-06T04:52:00.275Z,89.08
2022-10-06T04:53:02.074Z,89.02
2022-10-06T04:54:04.155Z,88.88
2022-10-06T04:55:06.159Z,89.03
2022-10-06T04:56:10.438Z,89.06
2022-10-06T04:57:12.225Z,88.99
2022-10-06T04:58:13.989Z,88.94
2022-10-06T04:59:15.923Z,88.31
2022-10-06T05:00:24.625Z,88.66
2022-10-06T05:01:28.092Z,88.60
2022-10-06T05:02:29.938Z,88.52
2022-10-06T05:03:31.951Z,88.40
2022-10-06T05:04:34.414Z,88.29
2022-10-06T05:05:36.189Z,88.46
2022-10-06T05:06:39.982Z,88.47
2022-10-06T05:07:44.183Z,88.37
2022-10-06T05:08:49.621Z,88.32
2022-10-06T05:09:51.501Z,87.96
2022-10-06T05:10:59.037Z,87.84
2022-10-06T05:12:00.848Z,87.63
2022-10-06T05:13:04.359Z,87.80
2022-10-06T05:14:06.187Z,87.39
2022-10-06T05:15:09.951Z,87.71
2022-10-06T05:16:13.222Z,87.56
2022-10-06T05:17:14.977Z,87.45
2022-10-06T05:18:16.748Z,87.27
2022-10-06T05:19:19.200Z,87.38
2022-10-06T05:20:23.180Z,87.33
2022-10-06T05:21:26.330Z,87.09
2022-10-06T05:22:28.111Z,87.29
2022-10-06T05:23:30.714Z,86.88
2022-10-06T05:24:32.480Z,87.36
2022-10-06T05:25:34.637Z,87.70
2022-10-06T05:26:37.097Z,87.50
2022-10-06T05:27:38.859Z,87.52
2022-10-06T05:28:40.849Z,87.63
2022-10-06T05:29:42.933Z,87.59
2022-10-06T05:31:06.042Z,88.01
2022-10-06T05:32:07.933Z,87.75
2022-10-06T05:33:11.460Z,87.66
2022-10-06T05:34:13.163Z,87.39
2022-10-06T05:35:14.908Z,87.64
2022-10-06T05:36:18.065Z,87.78
2022-10-06T05:37:20.699Z,87.63
2022-10-06T05:38:22.506Z,87.67
2022-10-06T05:39:24.351Z,87.60
2022-10-06T05:40:26.089Z,87.68
2022-10-06T05:41:32.765Z,87.47
2022-10-06T05:42:34.517Z,87.98
2022-10-06T05:43:38.105Z,87.95
2022-10-06T05:44:39.805Z,87.92
2022-10-06T05:45:41.667Z,87.85
2022-10-06T05:46:43.414Z,87.99
2022-10-06T05:47:45.236Z,88.11
2022-10-06T05:48:50.592Z,87.85
2022-10-06T05:49:52.378Z,87.88
2022-10-06T05:51:01.620Z,87.83
2022-10-06T05:52:03.606Z,88.25
2022-10-06T05:53:05.314Z,88.49
2022-10-06T05:54:10.927Z,88.38
2022-10-06T05:55:12.913Z,88.24
2022-10-06T05:56:16.192Z,88.63
2022-10-06T05:59:27.787Z,88.14
2022-10-06T06:00:29.571Z,88.15
2022-10-06T06:01:32.738Z,87.87
2022-10-06T06:02:34.610Z,87.92
2022-10-06T06:03:37.143Z,88.23
2022-10-06T06:04:38.982Z,87.90
2022-10-06T06:05:43.503Z,88.28
2022-10-06T06:06:46.351Z,87.94
2022-10-06T06:07:48.139Z,87.83
2022-10-06T06:08:54.545Z,87.71
2022-10-06T06:09:56.339Z,88.41
2022-10-06T06:11:05.416Z,88.27
2022-10-06T06:12:07.723Z,88.59
2022-10-06T06:13:09.478Z,88.28
2022-10-06T06:14:12.294Z,88.29
2022-10-06T06:15:32.673Z,88.43
2022-10-06T06:16:36.206Z,88.21
2022-10-06T06:17:38.003Z,88.60
2022-10-06T06:18:41.943Z,88.60
2022-10-06T06:19:43.681Z,88.39
2022-10-06T06:20:54.799Z,88.28
2022-10-06T06:21:56.661Z,88.31
2022-10-06T06:22:58.553Z,88.38
2022-10-06T06:24:00.316Z,88.29
2022-10-06T06:25:02.149Z,88.44
2022-10-06T06:26:07.291Z,88.19
2022-10-06T06:27:09.161Z,88.25
2022-10-06T06:28:10.928Z,88.28
2022-10-06T06:29:12.620Z,88.45
2022-10-06T06:30:14.535Z,88.43
2022-10-06T06:31:20.275Z,88.74
2022-10-06T06:32:22.617Z,88.65
2022-10-06T06:33:24.441Z,88.73
2022-10-06T06:34:27.477Z,88.61
2022-10-06T06:35:30.018Z,88.69
2022-10-06T06:36:35.976Z,88.61
2022-10-06T06:37:37.808Z,89.04
2022-10-06T06:38:39.794Z,88.64
2022-10-06T06:39:41.668Z,88.57
2022-10-06T06:40:43.755Z,88.57
2022-10-06T06:41:46.587Z,88.44
2022-10-06T06:42:53.561Z,88.32
2022-10-06T06:43:56.454Z,88.35
2022-10-06T06:44:58.303Z,88.41
2022-10-06T06:46:04.587Z,88.70
2022-10-06T06:47:06.431Z,88.83
2022-10-06T06:48:13.920Z,88.87
2022-10-06T06:49:16.963Z,88.23
2022-10-06T06:50:18.993Z,88.23
2022-10-06T06:51:24.364Z,88.19
2022-10-06T06:52:26.682Z,88.32
2022-10-06T06:53:28.498Z,88.26
2022-10-06T06:54:30.315Z,88.05
2022-10-06T06:55:32.056Z,88.03
2022-10-06T06:56:36.145Z,87.88
2022-10-06T06:57:37.914Z,87.62
2022-10-06T06:58:39.881Z,87.87
2022-10-06T06:59:41.686Z,87.84
2022-10-06T07:00:43.842Z,87.80
2022-10-06T07:01:47.538Z,87.91
2022-10-06T07:02:56.291Z,88.08
2022-10-06T07:04:01.181Z,88.22
2022-10-06T07:05:02.958Z,88.25
2022-10-06T07:06:10.023Z,87.99
2022-10-06T07:07:12.054Z,88.25
2022-10-06T07:08:15.635Z,88.01
2022-10-06T07:09:17.447Z,87.90
2022-10-06T07:10:19.198Z,88.17
2022-10-06T07:11:22.388Z,88.11
2022-10-06T07:12:25.627Z,87.74
2022-10-06T07:13:27.561Z,88.00
2022-10-06T07:14:29.314Z,88.42
2022-10-06T07:15:49.443Z,88.23
2022-10-06T07:17:09.951Z,88.75
2022-10-06T07:18:30.207Z,88.85
2022-10-06T07:19:41.053Z,88.43
2022-10-06T07:21:01.253Z,88.50
2022-10-06T07:22:25.751Z,88.58
2022-10-06T07:23:45.762Z,88.36
2022-10-06T11:32:42.668Z,56.09
2022-10-06T11:33:49.845Z,58.28
2022-10-06T11:34:52.333Z,57.65
2022-10-06T11:35:54.277Z,55.04
2022-10-06T11:36:55.981Z,56.33
2022-10-06T11:38:15.933Z,55.46
2022-10-06T11:39:36.636Z,56.81
2022-10-06T11:40:48.060Z,55.67
2022-10-06T11:41:54.294Z,54.67
2022-10-06T11:43:01.334Z,56.24
2022-10-06T11:44:07.045Z,54.44
2022-10-06T11:45:14.084Z,56.20
2022-10-06T11:46:15.910Z,56.06
2022-10-06T11:47:34.359Z,54.75
2022-10-06T11:48:38.134Z,55.13
2022-10-06T11:49:45.732Z,56.29
2022-10-06T11:50:49.630Z,55.39
2022-10-06T11:51:54.643Z,55.68
2022-10-06T11:52:58.815Z,56.11
2022-10-06T11:54:00.756Z,55.54
2022-10-06T11:55:15.161Z,56.35
2022-10-06T11:56:16.888Z,53.58
2022-10-06T11:57:30.266Z,54.22
2022-10-06T11:58:52.775Z,55.67
2022-10-06T12:00:17.597Z,55.06
2022-10-06T12:01:31.591Z,56.11
2022-10-06T12:02:33.501Z,55.31
2022-10-06T12:03:44.659Z,54.82
2022-10-06T12:05:22.938Z,53.83
2022-10-06T12:06:43.370Z,53.46
2022-10-06T12:07:54.421Z,55.57
2022-10-06T12:08:56.191Z,55.26
2022-10-06T12:10:16.718Z,56.32
2022-10-06T12:11:36.847Z,55.69
2022-10-06T12:12:42.336Z,54.78
2022-10-06T12:14:44.564Z,55.75
2022-10-06T12:17:11.443Z,54.27
2022-10-06T12:18:04.819Z,53.81
2022-10-06T12:19:16.107Z,54.31
2022-10-06T12:20:21.500Z,53.50
2022-10-06T12:21:31.834Z,54.72
2022-10-06T12:22:39.004Z,55.09
2022-10-06T12:23:48.953Z,56.12
2022-10-06T12:25:10.257Z,55.48
2022-10-06T12:26:33.512Z,55.42
2022-10-06T12:27:54.063Z,56.10
2022-10-06T12:29:01.996Z,56.21
2022-10-06T12:30:06.057Z,54.22
2022-10-06T12:31:26.496Z,55.76
2022-10-06T12:32:35.800Z,57.51
2022-10-06T12:33:44.459Z,54.71
2022-10-06T12:35:12.462Z,54.72
2022-10-06T12:36:16.982Z,54.75
2022-10-06T12:37:31.126Z,55.64
2022-10-06T12:38:34.064Z,56.25
2022-10-06T12:39:35.824Z,55.83
2022-10-06T12:40:47.983Z,56.71
2022-10-06T12:42:00.390Z,56.91
2022-10-06T12:43:23.554Z,55.53
2022-10-06T12:44:28.454Z,54.50
2022-10-06T12:45:30.185Z,55.17
2022-10-06T12:46:43.781Z,55.40
2022-10-06T12:47:46.872Z,57.29
2022-10-06T12:48:52.310Z,54.34
2022-10-06T12:49:58.953Z,56.02
2022-10-06T12:51:30.705Z,56.37
2022-10-06T12:52:43.570Z,55.56
2022-10-06T12:54:00.711Z,57.06
2022-10-06T12:55:03.477Z,55.91
2022-10-06T12:56:06.278Z,57.55
2022-10-06T12:57:14.253Z,55.03
2022-10-06T12:58:29.396Z,57.64
2022-10-06T12:59:32.550Z,56.31
2022-10-06T13:00:38.969Z,57.05
2022-10-06T13:01:40.806Z,56.85
2022-10-06T13:02:44.350Z,57.60
2022-10-06T13:03:50.366Z,58.52
2022-10-06T13:04:57.799Z,57.79
2022-10-06T13:06:02.727Z,57.24
2022-10-06T13:07:10.373Z,58.29
2022-10-06T13:08:25.882Z,56.38
2022-10-06T13:09:27.638Z,57.36
2022-10-06T13:10:30.143Z,56.93
2022-10-06T13:11:32.088Z,57.43
2022-10-06T13:12:37.980Z,57.40
2022-10-06T13:13:46.703Z,57.27
2022-10-06T13:14:49.306Z,56.22
2022-10-06T13:15:52.202Z,56.99
2022-10-06T13:16:54.157Z,55.77
2022-10-06T13:18:08.216Z,57.29
2022-10-06T13:19:17.918Z,57.55
2022-10-06T13:20:25.625Z,57.78
2022-10-06T13:21:29.910Z,55.50
2022-10-06T13:22:31.802Z,55.91
2022-10-06T13:23:38.473Z,56.84
2022-10-06T13:24:40.472Z,54.07
2022-10-06T13:25:44.641Z,55.40
2022-10-06T13:26:47.233Z,56.36
2022-10-06T13:27:50.788Z,55.66
2022-10-06T13:28:53.584Z,56.59
2022-10-06T13:30:14.096Z,56.41
2022-10-06T13:31:31.735Z,55.07
2022-10-06T13:32:33.657Z,55.31
2022-10-06T13:33:37.556Z,56.00
2022-10-06T13:34:43.391Z,55.71
2022-10-06T13:35:45.709Z,54.79
2022-10-06T13:36:51.044Z,53.13
2022-10-06T13:37:53.756Z,54.83
2022-10-06T13:38:55.746Z,55.68
2022-10-06T13:39:57.756Z,55.23
2022-10-06T13:41:04.793Z,54.95
2022-10-06T13:42:10.781Z,56.10
2022-10-06T13:43:17.429Z,56.06
2022-10-06T13:44:19.140Z,55.03
2022-10-06T13:45:21.075Z,55.69
2022-10-06T13:46:25.534Z,55.57
2022-10-06T13:47:30.284Z,55.32
2022-10-06T13:48:32.097Z,55.14
2022-10-06T13:49:56.736Z,54.31
2022-10-06T13:52:15.919Z,53.37
2022-10-06T13:53:25.972Z,54.65
2022-10-06T13:54:32.226Z,53.35
2022-10-06T13:55:34.314Z,53.86
2022-10-06T13:56:40.524Z,54.62
2022-10-06T13:57:46.620Z,54.39
2022-10-06T13:58:48.313Z,53.02
2022-10-06T14:00:02.094Z,52.67
2022-10-06T14:01:05.829Z,53.67
2022-10-06T14:02:16.790Z,53.61
2022-10-06T14:03:23.877Z,53.97
2022-10-06T14:04:25.657Z,53.81
2022-10-06T14:05:30.343Z,52.72
2022-10-06T14:06:32.155Z,53.80
2022-10-06T14:07:33.978Z,54.10
2022-10-06T14:08:36.416Z,53.37
2022-10-06T14:09:38.288Z,54.78
2022-10-06T14:10:52.158Z,54.20
2022-10-06T14:12:01.094Z,54.07
2022-10-06T14:13:06.739Z,52.18
2022-10-06T14:14:15.273Z,51.72
2022-10-06T14:15:19.326Z,53.27
2022-10-06T14:16:23.435Z,51.83
2022-10-06T14:17:28.290Z,54.13
2022-10-06T14:18:38.908Z,54.93
2022-10-06T14:19:41.450Z,54.50
2022-10-06T14:20:47.080Z,55.42
2022-10-06T14:21:48.801Z,55.43
2022-10-06T14:22:50.606Z,55.65
2022-10-06T14:23:53.132Z,56.35
2022-10-06T14:24:55.775Z,56.86
2022-10-06T14:25:57.543Z,56.50
2022-10-06T14:27:03.273Z,57.49
2022-10-06T14:28:05.195Z,57.41
2022-10-06T14:29:07.086Z,58.27
2022-10-06T14:30:09.191Z,58.28
2022-10-06T14:31:14.521Z,57.64
2022-10-06T14:32:17.660Z,58.44
2022-10-06T14:33:19.692Z,58.59
2022-10-06T14:34:22.176Z,58.80
2022-10-06T14:35:23.966Z,59.27
2022-10-06T14:36:29.928Z,59.92
2022-10-06T14:37:33.790Z,58.93
2022-10-06T14:38:36.245Z,58.96
2022-10-06T14:39:38.088Z,59.82
2022-10-06T14:40:42.998Z,59.87
2022-10-06T14:41:45.999Z,60.04
2022-10-06T14:43:55.490Z,60.92
2022-10-06T14:44:57.993Z,60.90
2022-10-06T14:46:04.088Z,59.83
2022-10-06T14:47:09.573Z,60.55
2022-10-06T14:48:11.871Z,59.51
2022-10-06T14:49:14.241Z,60.40
2022-10-06T14:50:17.647Z,61.37
2022-10-06T14:51:19.960Z,61.31
2022-10-06T14:52:23.189Z,61.35
2022-10-06T14:53:25.545Z,61.63
2022-10-06T14:54:27.351Z,62.19
2022-10-06T14:55:31.104Z,62.81
2022-10-06T14:56:34.194Z,63.16
2022-10-06T14:57:35.916Z,63.29
2022-10-06T14:58:39.048Z,63.66
2022-10-06T14:59:40.801Z,63.66
2022-10-06T15:00:43.621Z,64.11
2022-10-06T15:01:46.142Z,64.37
2022-10-06T15:02:48.275Z,64.46
2022-10-06T15:03:57.279Z,64.71
2022-10-06T15:04:59.041Z,64.78
2022-10-06T15:06:26.930Z,65.05
2022-10-06T15:07:47.127Z,65.51
2022-10-06T15:08:50.945Z,65.72
2022-10-06T15:09:52.889Z,65.71
2022-10-06T15:10:54.803Z,66.07
2022-10-06T15:11:56.945Z,66.20
2022-10-06T15:12:58.747Z,66.45
2022-10-06T15:14:01.075Z,66.47
2022-10-06T15:15:02.828Z,66.51
2022-10-06T15:16:04.577Z,66.70
2022-10-06T15:17:06.345Z,66.69
2022-10-06T15:18:08.154Z,66.72
2022-10-06T15:19:11.266Z,66.87
2022-10-06T15:20:14.709Z,67.07
2022-10-06T15:21:16.771Z,67.06
2022-10-06T15:22:19.784Z,67.25
2022-10-06T15:23:21.803Z,67.52
2022-10-06T15:24:23.606Z,67.61
2022-10-06T15:25:43.798Z,67.80
2022-10-06T15:27:04.366Z,67.94
2022-10-06T15:28:24.393Z,68.10
2022-10-06T15:29:26.304Z,68.36
2022-10-06T15:30:28.066Z,68.33
2022-10-06T15:31:37.407Z,68.18
2022-10-06T15:32:39.326Z,68.41
2022-10-06T15:33:41.090Z,68.45
2022-10-06T15:34:42.911Z,68.87
2022-10-06T15:35:48.936Z,69.02
2022-10-06T15:36:52.461Z,69.04
2022-10-06T15:37:56.002Z,69.10
2022-10-06T15:38:58.524Z,69.27
2022-10-06T15:40:01.830Z,69.32
2022-10-06T15:41:05.012Z,69.45
2022-10-06T15:42:08.248Z,69.45
2022-10-06T15:43:10.093Z,69.70
2022-10-06T15:44:12.474Z,69.66
2022-10-06T15:45:14.400Z,70.31
2022-10-06T15:46:16.154Z,70.39
2022-10-06T15:47:18.019Z,70.42
2022-10-06T15:48:21.233Z,70.36
2022-10-06T15:49:26.843Z,70.29
2022-10-06T15:50:28.761Z,70.37
2022-10-06T15:51:31.866Z,70.52
2022-10-06T15:52:34.144Z,70.70
2022-10-06T15:53:35.986Z,71.16
2022-10-06T15:54:39.028Z,71.44
2022-10-06T15:55:40.920Z,71.91
2022-10-06T15:56:42.762Z,72.35
2022-10-06T15:57:44.520Z,72.37
2022-10-06T15:58:46.321Z,72.09
2022-10-06T15:59:48.091Z,72.91
2022-10-06T16:00:50.154Z,72.88
2022-10-06T16:01:56.045Z,73.21
2022-10-06T16:02:58.037Z,72.77
2022-10-06T16:04:02.554Z,73.33
2022-10-06T16:05:04.357Z,74.20
2022-10-06T16:06:08.928Z,73.90
2022-10-06T16:07:10.693Z,74.00
2022-10-06T16:08:12.542Z,73.54
2022-10-06T16:09:15.524Z,73.86
2022-10-06T16:10:17.356Z,74.08
2022-10-06T16:11:19.152Z,73.88
2022-10-06T16:12:22.425Z,73.67
2022-10-06T16:13:24.193Z,74.59
2022-10-06T16:14:26.415Z,74.38
2022-10-06T16:15:28.187Z,74.07
2022-10-06T16:16:30.272Z,74.66
2022-10-06T16:17:32.099Z,74.36
2022-10-06T16:18:33.889Z,74.31
2022-10-06T16:19:37.184Z,74.35
2022-10-06T16:20:38.986Z,74.38
2022-10-06T16:21:41.295Z,74.29
2022-10-06T16:22:43.096Z,74.67
2022-10-06T16:23:45.215Z,74.94
2022-10-06T16:24:47.116Z,75.09
2022-10-06T16:25:49.766Z,75.28
2022-10-06T16:26:51.988Z,74.76
2022-10-06T16:27:53.937Z,74.83
2022-10-06T16:28:55.835Z,74.71
2022-10-06T16:29:57.699Z,74.60
2022-10-06T16:30:59.515Z,75.03
2022-10-06T16:32:01.256Z,75.26
2022-10-06T16:33:02.982Z,75.51
2022-10-06T16:34:04.961Z,75.83
2022-10-06T16:35:06.986Z,75.57
2022-10-06T16:36:09.805Z,75.66
2022-10-06T16:37:11.563Z,76.07
2022-10-06T16:38:13.294Z,76.33
2022-10-06T16:39:16.118Z,76.38
2022-10-06T16:40:18.117Z,76.41
2022-10-06T16:41:20.760Z,76.34
2022-10-06T16:42:22.592Z,76.82
2022-10-06T16:43:44.608Z,76.56
2022-10-06T16:44:46.421Z,77.52
2022-10-06T16:46:02.570Z,77.39
2022-10-06T16:47:04.520Z,78.33
2022-10-06T16:48:06.338Z,77.95
2022-10-06T16:49:09.477Z,77.94
2022-10-06T16:50:11.274Z,77.49
2022-10-06T16:51:13.755Z,77.59
2022-10-06T16:52:15.532Z,77.29
2022-10-06T16:53:18.829Z,76.78
2022-10-06T16:54:21.144Z,76.94
2022-10-06T16:55:23.186Z,76.70
2022-10-06T16:56:28.974Z,76.70
2022-10-06T16:57:32.348Z,76.68
2022-10-06T16:58:48.175Z,77.05
2022-10-06T16:59:49.942Z,77.00
2022-10-06T17:00:58.124Z,76.94
2022-10-06T17:02:00.020Z,78.40
2022-10-06T17:03:02.064Z,78.24
2022-10-06T17:04:14.426Z,78.71
2022-10-06T17:05:17.329Z,78.84
2022-10-06T17:06:19.334Z,78.86
2022-10-06T17:07:21.105Z,79.60
2022-10-06T17:08:24.112Z,79.43
2022-10-06T17:09:27.241Z,79.01
2022-10-06T17:10:28.987Z,79.35
2022-10-06T17:11:30.792Z,79.21
2022-10-06T17:12:32.649Z,78.89
2022-10-06T17:13:35.271Z,78.82
2022-10-06T17:14:36.998Z,78.70
2022-10-06T17:15:38.784Z,78.77
2022-10-06T17:16:41.729Z,78.72
2022-10-06T17:17:43.565Z,78.69
2022-10-06T17:18:49.484Z,79.31
2022-10-06T17:19:51.450Z,79.84
2022-10-06T17:20:57.153Z,80.50
2022-10-06T17:22:00.006Z,80.57
2022-10-06T17:23:02.093Z,80.62
2022-10-06T17:24:04.315Z,80.43
2022-10-06T17:25:06.134Z,80.19
2022-10-06T17:26:18.874Z,79.86
2022-10-06T17:27:20.828Z,79.76
2022-10-06T17:28:23.655Z,79.53
2022-10-06T17:29:26.162Z,79.90
2022-10-06T17:30:27.950Z,79.69
2022-10-06T17:31:40.171Z,79.99
2022-10-06T17:32:43.088Z,80.45
2022-10-06T17:33:45.754Z,80.58
2022-10-06T17:34:48.363Z,80.42
2022-10-06T17:35:50.849Z,80.35
2022-10-06T17:36:52.939Z,80.07
2022-10-06T17:37:54.812Z,80.07
2022-10-06T17:39:04.129Z,79.82
2022-10-06T17:40:06.224Z,79.65
2022-10-06T17:41:14.886Z,79.59
2022-10-06T17:42:16.637Z,79.55
2022-10-06T17:43:18.446Z,79.49
2022-10-06T17:44:23.435Z,79.30
2022-10-06T17:45:28.027Z,79.08
2022-10-06T17:46:40.382Z,79.41
2022-10-06T17:47:42.196Z,79.20
2022-10-06T17:48:44.991Z,79.01
2022-10-06T17:49:46.745Z,79.21
2022-10-06T17:50:56.904Z,79.37
2022-10-06T17:51:58.727Z,79.49
2022-10-06T17:53:00.724Z,79.78
2022-10-06T17:54:04.373Z,79.75
2022-10-06T17:55:06.473Z,79.99
2022-10-06T17:56:09.406Z,79.99
2022-10-06T17:57:11.222Z,80.32
2022-10-06T17:58:17.893Z,80.49
2022-10-06T17:59:22.654Z,80.57
2022-10-06T18:00:28.265Z,80.71
2022-10-06T18:01:33.878Z,80.27
2022-10-06T18:02:36.180Z,79.99